createdAt,value
2018-12-15T00:01:19.737Z,17.93
2018-12-15T00:03:51.844Z,18.10
2018-12-15T00:06:24.218Z,18.17
2018-12-15T00:08:54.980Z,18.23
2018-12-15T00:11:25.279Z,23.70
2018-12-15T00:13:55.309Z,22.93
2018-12-15T00:16:25.811Z,22.37
2018-12-15T00:18:56.343Z,20.00
2018-12-15T00:21:26.479Z,21.23
2018-12-15T00:23:56.992Z,22.20
2018-12-15T00:26:27.209Z,22.23
2018-12-15T00:28:57.432Z,22.57
2018-12-15T00:31:27.614Z,24.80
2018-12-15T00:33:57.985Z,24.50
2018-12-15T00:36:43.562Z,23.00
2018-12-15T00:39:14.346Z,21.90
2018-12-15T00:41:44.296Z,20.03
2018-12-15T00:44:15.069Z,17.93
2018-12-15T00:46:45.189Z,17.77
2018-12-15T00:49:15.899Z,19.17
2018-12-15T00:51:46.132Z,18.90
2018-12-15T00:54:16.473Z,19.50
2018-12-15T00:56:46.471Z,19.70
2018-12-15T00:59:16.825Z,19.90
2018-12-15T01:01:46.972Z,19.37
2018-12-15T01:04:17.891Z,20.63
2018-12-15T01:06:48.275Z,21.80
2018-12-15T01:09:18.403Z,18.50
2018-12-15T01:11:48.914Z,17.60
2018-12-15T01:14:18.877Z,16.97
2018-12-15T01:16:49.207Z,17.20
2018-12-15T01:19:21.827Z,16.77
2018-12-15T01:21:51.941Z,17.20
2018-12-15T01:24:21.928Z,17.43
2018-12-15T01:26:52.008Z,16.80
2018-12-15T01:29:22.212Z,17.27
2018-12-15T01:31:52.662Z,17.77
2018-12-15T01:34:22.909Z,21.57
2018-12-15T01:36:53.116Z,18.33
2018-12-15T01:39:23.645Z,19.33
2018-12-15T01:41:53.733Z,18.37
2018-12-15T01:44:23.861Z,18.67
2018-12-15T01:46:54.147Z,18.17
2018-12-15T01:49:24.421Z,20.53
2018-12-15T01:51:54.569Z,22.13
2018-12-15T01:54:24.509Z,20.53
2018-12-15T01:56:54.728Z,18.27
2018-12-15T01:59:25.014Z,18.40
2018-12-15T02:01:55.282Z,18.47
2018-12-15T02:04:25.306Z,18.40
2018-12-15T02:06:55.335Z,18.77
2018-12-15T02:09:25.563Z,16.97
2018-12-15T02:11:55.916Z,17.37
2018-12-15T02:14:26.098Z,17.43
2018-12-15T02:16:56.017Z,17.00
2018-12-15T02:19:26.487Z,17.50
2018-12-15T02:21:56.735Z,20.57
2018-12-15T02:24:26.911Z,20.00
2018-12-15T02:26:57.113Z,20.00
2018-12-15T02:29:32.373Z,20.60
2018-12-15T02:32:02.653Z,21.70
2018-12-15T02:34:32.679Z,21.67
2018-12-15T02:37:02.723Z,21.23
2018-12-15T02:39:33.126Z,21.27
2018-12-15T02:42:03.215Z,20.60
2018-12-15T02:44:33.244Z,19.30
2018-12-15T02:47:03.995Z,18.67
2018-12-15T02:49:34.493Z,21.50
2018-12-15T02:52:04.721Z,18.97
2018-12-15T02:54:34.937Z,18.07
2018-12-15T02:57:04.980Z,17.67
2018-12-15T02:59:35.206Z,17.77
2018-12-15T03:02:05.535Z,19.33
2018-12-15T03:04:35.643Z,20.97
2018-12-15T03:07:05.727Z,24.53
2018-12-15T03:09:35.681Z,21.97
2018-12-15T03:12:05.655Z,20.63
2018-12-15T03:14:35.884Z,23.43
2018-12-15T03:17:07.064Z,22.70
2018-12-15T03:19:42.451Z,22.33
2018-12-15T03:22:12.778Z,22.40
2018-12-15T03:24:42.731Z,21.40
2018-12-15T03:27:12.877Z,22.37
2018-12-15T03:29:44.248Z,23.70
2018-12-15T03:32:14.557Z,23.30
2018-12-15T03:34:44.409Z,22.80
2018-12-15T03:37:14.606Z,22.63
2018-12-15T03:39:44.739Z,21.83
2018-12-15T03:42:15.056Z,18.60
2018-12-15T03:44:45.177Z,18.33
2018-12-15T03:47:15.044Z,17.40
2018-12-15T03:49:45.189Z,16.83
2018-12-15T03:52:15.270Z,16.67
2018-12-15T03:54:45.265Z,16.90
2018-12-15T03:57:15.531Z,16.27
2018-12-15T03:59:51.094Z,16.77
2018-12-15T04:02:21.852Z,16.00
2018-12-15T04:04:52.272Z,16.47
2018-12-15T04:07:22.410Z,17.07
2018-12-15T04:09:53.749Z,17.47
2018-12-15T04:12:23.998Z,18.20
2018-12-15T04:14:54.972Z,18.90
2018-12-15T04:17:24.860Z,17.10
2018-12-15T04:19:54.859Z,16.97
2018-12-15T04:22:25.171Z,16.57
2018-12-15T04:24:55.330Z,16.43
2018-12-15T04:27:25.512Z,17.27
2018-12-15T04:29:57.509Z,17.20
2018-12-15T04:32:27.470Z,17.40
2018-12-15T04:34:57.770Z,17.97
2018-12-15T04:37:27.886Z,17.50
2018-12-15T04:39:59.516Z,19.00
2018-12-15T04:42:29.789Z,21.10
2018-12-15T04:45:00.055Z,21.27
2018-12-15T04:47:30.169Z,20.63
2018-12-15T04:50:00.352Z,20.13
2018-12-15T04:52:30.233Z,20.13
2018-12-15T04:55:02.261Z,21.90
2018-12-15T04:57:32.549Z,22.63
2018-12-15T05:00:02.984Z,23.30
2018-12-15T05:02:33.796Z,21.83
2018-12-15T05:05:04.403Z,23.23
2018-12-15T05:07:34.398Z,23.33
2018-12-15T05:10:05.154Z,22.17
2018-12-15T05:12:35.160Z,20.07
2018-12-15T05:15:05.538Z,20.03
2018-12-15T05:17:35.696Z,22.53
2018-12-15T05:20:07.425Z,22.17
2018-12-15T05:22:37.681Z,22.00
2018-12-15T05:25:07.867Z,22.93
2018-12-15T05:27:38.155Z,20.47
2018-12-15T05:30:08.771Z,20.47
2018-12-15T05:32:38.861Z,20.30
2018-12-15T05:35:09.142Z,20.80
2018-12-15T05:37:38.960Z,20.50
2018-12-15T05:40:14.718Z,18.70
2018-12-15T05:42:44.757Z,20.13
2018-12-15T05:45:16.037Z,19.63
2018-12-15T05:47:46.797Z,20.30
2018-12-15T05:50:17.107Z,19.83
2018-12-15T05:52:47.012Z,19.00
2018-12-15T05:55:19.967Z,18.33
2018-12-15T05:57:50.390Z,17.23
2018-12-15T06:00:20.813Z,17.97
2018-12-15T06:02:50.739Z,30.00
2018-12-15T06:05:20.714Z,23.07
2018-12-15T06:07:51.095Z,23.43
2018-12-15T06:10:21.392Z,21.77
2018-12-15T06:12:51.494Z,21.87
2018-12-15T06:15:21.486Z,21.90
2018-12-15T06:17:51.487Z,19.60
2018-12-15T06:20:21.649Z,18.40
2018-12-15T06:22:51.539Z,16.97
2018-12-15T06:25:21.468Z,18.33
2018-12-15T06:27:51.629Z,17.63
2018-12-15T06:30:21.556Z,18.27
2018-12-15T06:32:51.691Z,18.33
2018-12-15T06:35:21.899Z,19.17
2018-12-15T06:37:51.901Z,18.70
2018-12-15T06:40:21.911Z,18.33
2018-12-15T06:42:54.309Z,18.60
2018-12-15T06:45:24.680Z,19.37
2018-12-15T06:47:54.967Z,18.23
2018-12-15T06:50:25.319Z,18.43
2018-12-15T06:52:55.386Z,18.43
2018-12-15T06:55:25.320Z,18.50
2018-12-15T06:57:55.180Z,16.73
2018-12-15T07:00:25.349Z,16.47
2018-12-15T07:02:55.596Z,17.27
2018-12-15T07:05:25.704Z,17.30
2018-12-15T07:07:55.683Z,17.63
2018-12-15T07:10:27.164Z,17.07
2018-12-15T07:12:57.250Z,18.10
2018-12-15T07:15:27.204Z,17.77
2018-12-15T07:17:57.429Z,18.33
2018-12-15T07:20:27.785Z,18.00
2018-12-15T07:22:57.989Z,19.03
2018-12-15T07:25:28.093Z,18.40
2018-12-15T07:27:58.332Z,18.23
2018-12-15T07:30:28.832Z,19.10
2018-12-15T07:32:58.981Z,18.13
2018-12-15T07:35:29.239Z,18.53
2018-12-15T07:37:59.044Z,19.37
2018-12-15T07:40:29.211Z,19.73
2018-12-15T07:42:59.672Z,19.50
2018-12-15T07:45:29.967Z,19.47
2018-12-15T07:48:01.229Z,20.33
2018-12-15T07:50:31.190Z,20.83
2018-12-15T07:53:01.379Z,21.13
2018-12-15T07:55:31.444Z,19.73
2018-12-15T07:58:01.851Z,18.13
2018-12-15T08:00:31.996Z,19.73
2018-12-15T08:03:02.110Z,19.17
2018-12-15T08:05:32.679Z,21.33
2018-12-15T08:08:02.874Z,19.07
2018-12-15T08:10:36.938Z,20.03
2018-12-15T08:13:08.990Z,22.10
2018-12-15T08:15:39.166Z,20.40
2018-12-15T08:18:10.066Z,19.70
2018-12-15T08:20:41.366Z,21.63
2018-12-15T08:23:11.303Z,21.30
2018-12-15T08:25:41.622Z,20.80
2018-12-15T08:28:11.926Z,21.47
2018-12-15T08:30:42.024Z,21.00
2018-12-15T08:33:12.494Z,20.13
2018-12-15T08:35:42.616Z,20.73
2018-12-15T08:38:12.986Z,21.17
2018-12-15T08:40:43.380Z,19.93
2018-12-15T08:43:14.021Z,21.03
2018-12-15T08:45:44.160Z,21.03
2018-12-15T08:48:14.530Z,21.00
2018-12-15T08:50:45.107Z,21.47
2018-12-15T08:53:15.199Z,20.70
2018-12-15T08:55:45.425Z,19.87
2018-12-15T08:58:15.471Z,21.53
2018-12-15T09:00:45.670Z,22.07
2018-12-15T09:03:15.661Z,21.70
2018-12-15T09:05:45.857Z,21.07
2018-12-15T09:08:16.000Z,21.87
2018-12-15T09:10:45.987Z,21.87
2018-12-15T09:13:16.208Z,21.87
2018-12-15T09:15:46.298Z,21.90
2018-12-15T09:18:17.270Z,20.80
2018-12-15T09:20:48.172Z,21.23
2018-12-15T09:23:18.352Z,20.20
2018-12-15T09:25:48.592Z,17.20
2018-12-15T09:28:18.753Z,15.07
2018-12-15T09:30:49.197Z,15.50
2018-12-15T09:33:20.385Z,15.20
2018-12-15T09:35:50.651Z,15.87
2018-12-15T09:41:07.916Z,14.47
2018-12-15T09:43:38.755Z,15.43
2018-12-15T09:46:08.839Z,14.73
2018-12-15T09:48:38.936Z,17.03
2018-12-15T09:51:08.992Z,17.00
2018-12-15T09:53:38.975Z,17.40
2018-12-15T09:56:08.963Z,16.60
2018-12-15T09:58:39.337Z,16.80
2018-12-15T10:01:09.649Z,20.17
2018-12-15T10:03:39.959Z,17.13
2018-12-15T10:06:10.420Z,15.97
2018-12-15T10:08:41.586Z,16.43
2018-12-15T10:11:11.788Z,16.73
2018-12-15T10:13:42.044Z,18.07
2018-12-15T10:16:12.696Z,19.43
2018-12-15T10:18:43.079Z,18.70
2018-12-15T10:21:13.527Z,19.40
2018-12-15T10:23:43.651Z,20.60
2018-12-15T10:26:13.946Z,18.23
2018-12-15T10:28:44.278Z,18.97
2018-12-15T10:31:20.266Z,17.60
2018-12-15T10:34:05.235Z,18.43
2018-12-15T10:36:35.278Z,17.40
2018-12-15T10:39:08.351Z,17.50
2018-12-15T10:41:38.287Z,19.13
2018-12-15T10:44:08.404Z,18.40
2018-12-15T10:46:39.141Z,17.43
2018-12-15T10:49:11.269Z,18.53
2018-12-15T10:51:41.839Z,19.33
2018-12-15T10:54:11.788Z,17.73
2018-12-15T10:56:41.766Z,15.77
2018-12-15T10:59:12.678Z,16.47
2018-12-15T11:01:42.529Z,16.57
2018-12-15T11:04:13.492Z,17.40
2018-12-15T11:06:43.773Z,16.93
2018-12-15T11:09:14.069Z,16.63
2018-12-15T11:11:46.335Z,16.90
2018-12-15T11:14:16.762Z,16.77
2018-12-15T11:16:48.234Z,15.83
2018-12-15T11:19:19.270Z,16.60
2018-12-15T11:21:49.909Z,16.77
2018-12-15T11:24:20.096Z,18.00
2018-12-15T11:26:50.810Z,18.40
2018-12-15T11:29:20.806Z,19.70
2018-12-15T11:31:51.119Z,18.80
2018-12-15T11:34:21.305Z,18.83
2018-12-15T11:36:51.434Z,19.00
2018-12-15T11:39:21.985Z,20.43
2018-12-15T11:41:52.163Z,17.83
2018-12-15T11:44:22.483Z,18.90
2018-12-15T11:46:52.820Z,18.33
2018-12-15T11:49:23.645Z,17.37
2018-12-15T11:51:53.764Z,18.07
2018-12-15T11:54:23.980Z,18.93
2018-12-15T11:56:54.742Z,18.53
2018-12-15T11:59:24.876Z,18.63
2018-12-15T12:01:54.848Z,18.30
2018-12-15T12:04:24.885Z,18.60
2018-12-15T12:06:55.035Z,19.30
2018-12-15T12:09:25.790Z,17.70
2018-12-15T12:11:56.139Z,18.13
2018-12-15T12:14:27.072Z,17.70
2018-12-15T12:16:58.437Z,16.97
2018-12-15T12:19:29.315Z,17.53
2018-12-15T12:22:00.275Z,17.67
2018-12-15T12:24:30.335Z,19.37
2018-12-15T12:27:06.808Z,18.80
2018-12-15T12:29:36.734Z,19.33
2018-12-15T12:32:07.328Z,18.33
2018-12-15T12:34:37.340Z,19.27
2018-12-15T12:37:07.505Z,19.80
2018-12-15T12:39:37.859Z,17.90
2018-12-15T12:42:08.994Z,18.77
2018-12-15T12:44:39.073Z,17.97
2018-12-15T12:47:09.203Z,19.07
2018-12-15T12:49:40.224Z,17.33
2018-12-15T12:52:10.785Z,17.23
2018-12-15T12:54:41.415Z,16.27
2018-12-15T12:57:13.067Z,14.50
2018-12-15T12:59:43.275Z,14.90
2018-12-15T13:02:13.691Z,14.07
2018-12-15T13:04:44.098Z,14.40
2018-12-15T13:07:14.856Z,13.53
2018-12-15T13:09:45.265Z,13.90
2018-12-15T13:12:15.982Z,13.90
2018-12-15T13:14:46.408Z,14.10
2018-12-15T13:17:17.341Z,15.10
2018-12-15T13:19:48.014Z,16.83
2018-12-15T13:22:18.303Z,17.73
2018-12-15T13:24:49.154Z,17.60
2018-12-15T13:27:19.700Z,17.20
2018-12-15T13:29:50.538Z,18.23
2018-12-15T13:32:21.005Z,17.27
2018-12-15T13:34:51.503Z,18.43
2018-12-15T13:37:21.779Z,17.80
2018-12-15T13:40:01.702Z,17.93
2018-12-15T13:42:33.071Z,17.57
2018-12-15T13:45:03.313Z,18.63
2018-12-15T13:47:33.556Z,17.53
2018-12-15T13:50:10.163Z,19.13
2018-12-15T13:52:40.428Z,17.77
2018-12-15T13:55:10.561Z,17.27
2018-12-15T13:57:41.281Z,15.83
2018-12-15T14:00:12.518Z,16.60
2018-12-15T14:02:43.123Z,16.13
2018-12-15T14:05:13.438Z,17.67
2018-12-15T14:07:43.451Z,17.93
2018-12-15T14:10:13.918Z,21.90
2018-12-15T14:12:45.096Z,21.90
2018-12-15T14:15:15.656Z,22.67
2018-12-15T14:17:45.751Z,24.23
2018-12-15T14:20:16.865Z,23.53
2018-12-15T14:22:47.392Z,21.97
2018-12-15T14:25:18.065Z,22.63
2018-12-15T14:27:49.654Z,22.47
2018-12-15T14:30:20.067Z,21.97
2018-12-15T14:32:51.016Z,20.13
2018-12-15T14:35:21.338Z,23.57
2018-12-15T14:37:51.518Z,27.00
2018-12-15T14:40:21.701Z,23.93
2018-12-15T14:42:51.854Z,23.53
2018-12-15T14:45:22.117Z,21.50
2018-12-15T14:47:52.408Z,18.40
2018-12-15T14:50:23.550Z,19.13
2018-12-15T14:52:53.725Z,18.73
2018-12-15T14:55:23.928Z,17.83
2018-12-15T14:57:55.013Z,21.70
2018-12-15T15:00:25.668Z,21.87
2018-12-15T15:02:55.843Z,20.17
2018-12-15T15:05:26.242Z,20.03
2018-12-15T15:07:56.282Z,19.43
2018-12-15T15:10:26.538Z,18.97
2018-12-15T15:12:56.676Z,16.43
2018-12-15T15:15:26.922Z,16.77
2018-12-15T15:17:57.666Z,17.30
2018-12-15T15:20:29.861Z,18.53
2018-12-15T15:22:59.866Z,17.97
2018-12-15T15:25:30.134Z,17.67
2018-12-15T15:28:00.273Z,17.37
2018-12-15T15:30:30.578Z,18.87
2018-12-15T15:33:01.222Z,16.50
2018-12-15T15:35:31.726Z,17.13
2018-12-15T15:38:02.200Z,16.53
2018-12-15T15:40:33.317Z,17.80
2018-12-15T15:43:03.803Z,16.63
2018-12-15T15:45:34.468Z,19.27
2018-12-15T15:48:06.535Z,18.17
2018-12-15T15:50:38.066Z,17.53
2018-12-15T15:56:01.891Z,16.10
2018-12-15T15:58:32.289Z,18.83
2018-12-15T16:01:02.854Z,18.07
2018-12-15T16:03:34.902Z,17.83
2018-12-15T16:06:05.268Z,18.70
2018-12-15T16:08:35.685Z,16.43
2018-12-15T16:11:05.981Z,18.50
2018-12-15T16:13:36.198Z,18.00
2018-12-15T16:16:16.227Z,17.70
2018-12-15T16:18:46.590Z,19.17
2018-12-15T16:21:16.908Z,17.13
2018-12-15T16:23:48.701Z,17.53
2018-12-15T16:26:18.882Z,17.17
2018-12-15T16:28:49.514Z,16.20
2018-12-15T16:31:19.795Z,18.10
2018-12-15T16:33:49.988Z,18.80
2018-12-15T16:36:20.344Z,16.47
2018-12-15T16:38:50.975Z,18.13
2018-12-15T16:41:21.017Z,17.07
2018-12-15T16:43:51.257Z,17.60
2018-12-15T16:46:21.515Z,17.00
2018-12-15T16:49:06.017Z,17.00
2018-12-15T16:51:36.703Z,15.87
2018-12-15T16:54:06.777Z,16.97
2018-12-15T16:56:37.116Z,17.67
2018-12-15T16:59:07.253Z,17.77
2018-12-15T17:01:37.459Z,18.57
2018-12-15T17:04:07.675Z,19.13
2018-12-15T17:06:38.308Z,18.97
2018-12-15T17:09:09.882Z,18.37
2018-12-15T17:11:39.968Z,16.80
2018-12-15T17:14:10.341Z,20.43
2018-12-15T17:16:40.906Z,20.03
2018-12-15T17:19:11.028Z,20.43
2018-12-15T17:21:41.265Z,21.90
2018-12-15T17:24:11.570Z,21.27
2018-12-15T17:26:41.957Z,20.30
2018-12-15T17:29:13.699Z,21.63
2018-12-15T17:31:44.076Z,22.03
2018-12-15T17:34:14.419Z,21.37
2018-12-15T17:36:44.834Z,20.27
2018-12-15T17:39:15.689Z,19.07
2018-12-15T17:41:46.199Z,19.30
2018-12-15T17:44:16.592Z,18.63
2018-12-15T17:46:46.737Z,20.50
2018-12-15T17:49:17.597Z,18.20
2018-12-15T17:51:47.983Z,19.00
2018-12-15T17:54:18.130Z,19.73
2018-12-15T17:56:48.431Z,18.53
2018-12-15T17:59:18.933Z,19.17
2018-12-15T18:01:49.363Z,18.50
2018-12-15T18:04:19.626Z,18.30
2018-12-15T18:06:49.867Z,20.37
2018-12-15T18:09:20.096Z,19.73
2018-12-15T18:11:50.791Z,17.27
2018-12-15T18:14:21.929Z,20.27
2018-12-15T18:16:52.100Z,19.10
2018-12-15T18:19:22.900Z,18.50
2018-12-15T18:21:53.432Z,18.33
2018-12-15T18:24:23.822Z,19.27
2018-12-15T18:26:53.752Z,19.23
2018-12-15T18:29:26.418Z,20.07
2018-12-15T18:31:57.087Z,20.43
2018-12-15T18:34:27.110Z,19.97
2018-12-15T18:36:57.280Z,20.37
2018-12-15T18:39:37.154Z,19.10
2018-12-15T18:42:10.733Z,18.67
2018-12-15T18:44:39.783Z,18.53
2018-12-15T18:47:10.059Z,17.87
2018-12-15T18:49:40.257Z,17.03
2018-12-15T18:52:10.582Z,18.60
2018-12-15T18:54:41.029Z,18.23
2018-12-15T18:57:11.293Z,17.60
2018-12-15T18:59:41.586Z,18.00
2018-12-15T19:02:12.134Z,17.83
2018-12-15T19:04:42.257Z,18.70
2018-12-15T19:07:12.860Z,19.03
2018-12-15T19:09:43.074Z,19.67
2018-12-15T19:12:13.720Z,21.00
2018-12-15T19:14:43.990Z,21.00
2018-12-15T19:17:14.468Z,21.10
2018-12-15T19:19:44.636Z,21.30
2018-12-15T19:22:15.201Z,20.67
2018-12-15T19:24:45.269Z,20.03
2018-12-15T19:27:15.551Z,21.70
2018-12-15T19:29:45.988Z,21.23
2018-12-15T19:32:16.219Z,19.97
2018-12-15T19:34:52.268Z,22.50
2018-12-15T19:37:19.776Z,21.73
2018-12-15T19:39:50.558Z,22.20
2018-12-15T19:42:21.176Z,22.27
2018-12-15T19:44:51.339Z,21.37
2018-12-15T19:47:22.327Z,21.87
2018-12-15T19:49:52.782Z,22.93
2018-12-15T19:52:23.162Z,22.20
2018-12-15T19:54:53.109Z,24.33
2018-12-15T19:57:23.394Z,22.60
2018-12-15T19:59:53.471Z,23.67
2018-12-15T20:02:23.779Z,24.73
2018-12-15T20:04:53.971Z,23.10
2018-12-15T20:07:24.315Z,23.90
2018-12-15T20:09:54.595Z,24.97
2018-12-15T20:12:24.823Z,22.30
2018-12-15T20:14:55.586Z,23.80
2018-12-15T20:17:25.868Z,22.43
2018-12-15T20:19:56.161Z,22.80
2018-12-15T20:22:27.366Z,23.43
2018-12-15T20:24:57.880Z,26.40
2018-12-15T20:27:28.062Z,23.20
2018-12-15T20:30:04.204Z,24.37
2018-12-15T20:32:34.372Z,23.53
2018-12-15T20:35:05.071Z,22.87
2018-12-15T20:37:35.244Z,24.27
2018-12-15T20:40:07.111Z,23.73
2018-12-15T20:42:37.458Z,24.47
2018-12-15T20:45:08.550Z,24.70
2018-12-15T20:47:38.824Z,25.13
2018-12-15T20:50:14.450Z,25.00
2018-12-15T20:52:47.755Z,24.47
2018-12-15T20:55:18.020Z,23.00
2018-12-15T20:57:49.629Z,23.70
2018-12-15T21:00:25.153Z,24.13
2018-12-15T21:02:56.369Z,24.20
2018-12-15T21:05:26.364Z,23.70
2018-12-15T21:07:56.261Z,22.67
2018-12-15T21:10:26.497Z,22.47
2018-12-15T21:12:56.535Z,21.13
2018-12-15T21:15:31.429Z,21.50
2018-12-15T21:18:01.705Z,21.00
2018-12-15T21:20:32.250Z,22.17
2018-12-15T21:23:02.520Z,19.97
2018-12-15T21:25:34.083Z,21.03
2018-12-15T21:28:04.420Z,21.23
2018-12-15T21:30:34.824Z,21.87
2018-12-15T21:33:05.374Z,21.07
2018-12-15T21:35:35.807Z,21.67
2018-12-15T21:38:06.017Z,20.63
2018-12-15T21:40:37.361Z,20.57
2018-12-15T21:43:07.614Z,23.00
2018-12-15T21:45:38.058Z,22.87
2018-12-15T21:48:08.099Z,23.77
2018-12-15T21:50:38.264Z,24.43
2018-12-15T21:53:08.436Z,26.13
2018-12-15T21:55:38.515Z,25.40
2018-12-15T21:58:09.271Z,23.60
2018-12-15T22:00:39.669Z,23.00
2018-12-15T22:03:09.630Z,23.87
2018-12-15T22:05:40.418Z,23.03
2018-12-15T22:08:12.205Z,24.40
2018-12-15T22:10:43.118Z,22.90
2018-12-15T22:13:13.398Z,24.50
2018-12-15T22:15:43.648Z,22.77
2018-12-15T22:18:14.305Z,23.03
2018-12-15T22:20:44.865Z,22.30
2018-12-15T22:23:15.050Z,24.30
2018-12-15T22:25:45.146Z,22.07
2018-12-15T22:28:15.231Z,23.47
2018-12-15T22:30:46.862Z,22.83
2018-12-15T22:33:17.087Z,23.40
2018-12-15T22:35:47.334Z,22.60
2018-12-15T22:38:18.143Z,23.77
2018-12-15T22:40:48.648Z,23.50
2018-12-15T22:43:19.153Z,24.43
2018-12-15T22:45:49.595Z,24.60
2018-12-15T22:48:20.138Z,22.27
2018-12-15T22:50:50.423Z,22.53
2018-12-15T22:53:20.636Z,21.17
2018-12-15T22:55:52.338Z,21.20
2018-12-15T22:58:31.960Z,23.47
2018-12-15T23:01:08.291Z,23.23
2018-12-15T23:03:40.682Z,23.17
2018-12-15T23:06:12.153Z,22.70
2018-12-15T23:08:47.731Z,24.70
2018-12-15T23:11:19.864Z,22.07
2018-12-15T23:13:51.883Z,21.57
2018-12-15T23:16:22.067Z,21.90
2018-12-15T23:18:53.712Z,22.27
2018-12-15T23:21:24.028Z,21.83
2018-12-15T23:23:54.809Z,24.03
2018-12-15T23:26:26.200Z,23.80
2018-12-15T23:28:59.297Z,23.93
2018-12-15T23:31:29.737Z,23.60
2018-12-15T23:34:01.033Z,23.10
2018-12-15T23:36:31.944Z,24.90
2018-12-15T23:39:02.714Z,26.17
2018-12-15T23:41:35.551Z,26.77
2018-12-15T23:44:05.879Z,24.30
2018-12-15T23:46:37.899Z,22.63
2018-12-15T23:49:09.110Z,28.40
2018-12-15T23:51:39.980Z,33.23
2018-12-15T23:54:12.138Z,34.67
2018-12-15T23:56:44.243Z,27.63
2018-12-15T23:59:15.045Z,25.17
